sensor_id;sensor_type;location;lat;lon;timestamp;pressure;altitude;pressure_sealevel;temperature;humidity
38912;BME280;28444;48.056;14.408;2022-07-03T00:01:54;97874.59;;;17.08;74.13
38912;BME280;28444;48.056;14.408;2022-07-03T00:04:21;97884.06;;;17.05;73.99
38912;BME280;28444;48.056;14.408;2022-07-03T00:06:48;97886.34;;;16.97;74.23
38912;BME280;28444;48.056;14.408;2022-07-03T00:09:15;97876.75;;;16.98;74.36
38912;BME280;28444;48.056;14.408;2022-07-03T00:11:42;97876.25;;;17.01;74.81
38912;BME280;28444;48.056;14.408;2022-07-03T00:14:09;97870.88;;;17.03;73.96
38912;BME280;28444;48.056;14.408;2022-07-03T00:16:36;97864.50;;;17.01;74.32
38912;BME280;28444;48.056;14.408;2022-07-03T00:19:03;97866.88;;;16.95;74.55
38912;BME280;28444;48.056;14.408;2022-07-03T00:21:45;97868.34;;;16.96;74.68
38912;BME280;28444;48.056;14.408;2022-07-03T00:24:20;97864.59;;;16.91;74.82
38912;BME280;28444;48.056;14.408;2022-07-03T00:26:50;97861.25;;;16.93;74.57
38912;BME280;28444;48.056;14.408;2022-07-03T00:29:23;97855.50;;;16.89;74.87
38912;BME280;28444;48.056;14.408;2022-07-03T00:31:53;97860.28;;;16.88;75.35
38912;BME280;28444;48.056;14.408;2022-07-03T00:34:22;97865.78;;;16.88;75.66
38912;BME280;28444;48.056;14.408;2022-07-03T00:36:52;97860.03;;;16.84;75.31
38912;BME280;28444;48.056;14.408;2022-07-03T00:39:19;97861.50;;;16.85;75.71
38912;BME280;28444;48.056;14.408;2022-07-03T00:41:46;97865.78;;;16.88;76.28
38912;BME280;28444;48.056;14.408;2022-07-03T00:44:13;97866.53;;;16.89;75.97
38912;BME280;28444;48.056;14.408;2022-07-03T00:46:41;97871.69;;;16.82;76.32
38912;BME280;28444;48.056;14.408;2022-07-03T00:49:10;97863.25;;;16.80;76.98
38912;BME280;28444;48.056;14.408;2022-07-03T00:51:38;97867.81;;;16.76;77.14
38912;BME280;28444;48.056;14.408;2022-07-03T00:54:08;97868.50;;;16.65;79.23
38912;BME280;28444;48.056;14.408;2022-07-03T00:56:38;97857.44;;;16.53;80.36
38912;BME280;28444;48.056;14.408;2022-07-03T00:59:05;97863.19;;;16.45;80.83
38912;BME280;28444;48.056;14.408;2022-07-03T01:01:35;97858.63;;;16.50;81.36
38912;BME280;28444;48.056;14.408;2022-07-03T01:04:25;97860.16;;;16.41;82.40
38912;BME280;28444;48.056;14.408;2022-07-03T01:07:06;97860.38;;;16.33;82.62
38912;BME280;28444;48.056;14.408;2022-07-03T01:10:16;97851.97;;;16.31;82.39
38912;BME280;28444;48.056;14.408;2022-07-03T01:13:02;97852.06;;;16.22;82.45
38912;BME280;28444;48.056;14.408;2022-07-03T01:15:52;97850.84;;;16.13;82.88
38912;BME280;28444;48.056;14.408;2022-07-03T01:18:44;97853.19;;;16.07;82.74
38912;BME280;28444;48.056;14.408;2022-07-03T01:21:46;97851.38;;;16.00;83.38
38912;BME280;28444;48.056;14.408;2022-07-03T01:27:18;97842.13;;;15.95;83.42
38912;BME280;28444;48.056;14.408;2022-07-03T01:30:05;97851.84;;;15.96;82.83
38912;BME280;28444;48.056;14.408;2022-07-03T01:32:38;97847.91;;;15.99;83.46
38912;BME280;28444;48.056;14.408;2022-07-03T01:35:07;97848.69;;;15.90;83.37
38912;BME280;28444;48.056;14.408;2022-07-03T01:37:35;97854.41;;;15.82;84.53
38912;BME280;28444;48.056;14.408;2022-07-03T01:40:03;97847.59;;;15.83;84.80
38912;BME280;28444;48.056;14.408;2022-07-03T01:42:35;97844.09;;;15.83;84.98
38912;BME280;28444;48.056;14.408;2022-07-03T01:45:08;97845.16;;;15.78;86.41
38912;BME280;28444;48.056;14.408;2022-07-03T01:47:38;97845.94;;;15.69;87.39
38912;BME280;28444;48.056;14.408;2022-07-03T01:50:10;97844.41;;;15.56;87.79
38912;BME280;28444;48.056;14.408;2022-07-03T01:52:40;97845.56;;;15.53;87.86
38912;BME280;28444;48.056;14.408;2022-07-03T01:55:13;97842.69;;;15.51;88.28
38912;BME280;28444;48.056;14.408;2022-07-03T01:57:46;97840.53;;;15.49;88.12
38912;BME280;28444;48.056;14.408;2022-07-03T02:00:15;97851.44;;;15.47;88.15
38912;BME280;28444;48.056;14.408;2022-07-03T02:02:49;97852.72;;;15.46;88.16
38912;BME280;28444;48.056;14.408;2022-07-03T02:06:23;97855.63;;;15.48;88.09
38912;BME280;28444;48.056;14.408;2022-07-03T02:08:48;97861.13;;;15.48;87.99
38912;BME280;28444;48.056;14.408;2022-07-03T02:11:39;97855.63;;;15.48;87.83
38912;BME280;28444;48.056;14.408;2022-07-03T02:14:16;97858.38;;;15.48;88.01
38912;BME280;28444;48.056;14.408;2022-07-03T02:19:42;97861.13;;;15.48;87.67
38912;BME280;28444;48.056;14.408;2022-07-03T02:22:12;97864.34;;;15.45;88.22
38912;BME280;28444;48.056;14.408;2022-07-03T02:24:43;97866.22;;;15.42;88.07
38912;BME280;28444;48.056;14.408;2022-07-03T02:27:19;97869.84;;;15.45;88.35
38912;BME280;28444;48.056;14.408;2022-07-03T02:29:54;97865.31;;;15.49;87.47
38912;BME280;28444;48.056;14.408;2022-07-03T02:32:22;97867.63;;;15.53;87.16
38912;BME280;28444;48.056;14.408;2022-07-03T02:34:58;97868.78;;;15.50;86.97
38912;BME280;28444;48.056;14.408;2022-07-03T02:37:30;97882.00;;;15.51;87.49
38912;BME280;28444;48.056;14.408;2022-07-03T02:40:07;97886.78;;;15.51;87.87
38912;BME280;28444;48.056;14.408;2022-07-03T02:46:18;97885.31;;;15.50;88.30
38912;BME280;28444;48.056;14.408;2022-07-03T02:52:10;97900.72;;;15.43;88.66
38912;BME280;28444;48.056;14.408;2022-07-03T02:54:45;97899.28;;;15.42;88.75
38912;BME280;28444;48.056;14.408;2022-07-03T02:57:17;97894.38;;;15.40;89.04
38912;BME280;28444;48.056;14.408;2022-07-03T03:00:01;97895.66;;;15.39;89.57
38912;BME280;28444;48.056;14.408;2022-07-03T03:05:51;97899.47;;;15.34;89.60
38912;BME280;28444;48.056;14.408;2022-07-03T03:08:47;97898.75;;;15.34;89.70
38912;BME280;28444;48.056;14.408;2022-07-03T03:11:41;97903.94;;;15.39;89.41
38912;BME280;28444;48.056;14.408;2022-07-03T03:14:12;97904.50;;;15.48;89.08
38912;BME280;28444;48.056;14.408;2022-07-03T03:16:46;97915.72;;;15.40;89.41
38912;BME280;28444;48.056;14.408;2022-07-03T03:19:14;97907.00;;;15.44;89.22
38912;BME280;28444;48.056;14.408;2022-07-03T03:22:28;97909.44;;;15.39;89.83
38912;BME280;28444;48.056;14.408;2022-07-03T03:24:55;97912.69;;;15.36;89.68
38912;BME280;28444;48.056;14.408;2022-07-03T03:27:22;97917.59;;;15.37;90.08
38912;BME280;28444;48.056;14.408;2022-07-03T03:29:49;97911.09;;;15.33;89.98
38912;BME280;28444;48.056;14.408;2022-07-03T03:32:17;97911.66;;;15.31;89.92
38912;BME280;28444;48.056;14.408;2022-07-03T03:34:45;97909.63;;;15.32;89.94
38912;BME280;28444;48.056;14.408;2022-07-03T03:37:13;97920.94;;;15.36;90.22
38912;BME280;28444;48.056;14.408;2022-07-03T03:39:40;97925.13;;;15.37;90.37
38912;BME280;28444;48.056;14.408;2022-07-03T03:42:07;97928.00;;;15.39;89.78
38912;BME280;28444;48.056;14.408;2022-07-03T03:44:34;97912.94;;;15.40;89.69
38912;BME280;28444;48.056;14.408;2022-07-03T03:47:01;97927.72;;;15.45;89.65
38912;BME280;28444;48.056;14.408;2022-07-03T03:49:29;97931.91;;;15.46;89.84
38912;BME280;28444;48.056;14.408;2022-07-03T03:51:56;97939.72;;;15.49;90.08
38912;BME280;28444;48.056;14.408;2022-07-03T03:54:23;97933.19;;;15.54;89.98
38912;BME280;28444;48.056;14.408;2022-07-03T03:56:50;97943.88;;;15.60;89.75
38912;BME280;28444;48.056;14.408;2022-07-03T03:59:16;97943.00;;;15.57;89.19
38912;BME280;28444;48.056;14.408;2022-07-03T04:01:43;97946.78;;;15.62;88.88
38912;BME280;28444;48.056;14.408;2022-07-03T04:04:12;97950.22;;;15.72;88.67
38912;BME280;28444;48.056;14.408;2022-07-03T04:06:44;97958.00;;;15.85;88.09
38912;BME280;28444;48.056;14.408;2022-07-03T04:09:11;97958.72;;;15.86;87.89
38912;BME280;28444;48.056;14.408;2022-07-03T04:11:37;97956.22;;;15.90;87.78
38912;BME280;28444;48.056;14.408;2022-07-03T04:14:04;97956.50;;;15.94;87.37
38912;BME280;28444;48.056;14.408;2022-07-03T04:16:33;97954.91;;;15.91;87.28
38912;BME280;28444;48.056;14.408;2022-07-03T04:19:00;97955.44;;;15.99;87.06
38912;BME280;28444;48.056;14.408;2022-07-03T04:21:27;97951.63;;;16.04;87.05
38912;BME280;28444;48.056;14.408;2022-07-03T04:23:54;97959.44;;;16.08;87.00
38912;BME280;28444;48.056;14.408;2022-07-03T04:26:20;97962.34;;;16.10;86.46
38912;BME280;28444;48.056;14.408;2022-07-03T04:28:47;97946.72;;;16.24;86.11
38912;BME280;28444;48.056;14.408;2022-07-03T04:31:14;97951.63;;;16.26;86.20
38912;BME280;28444;48.056;14.408;2022-07-03T04:33:41;97971.59;;;16.36;85.81
38912;BME280;28444;48.056;14.408;2022-07-03T04:36:13;97966.06;;;16.36;85.98
38912;BME280;28444;48.056;14.408;2022-07-03T04:38:39;97963.47;;;16.38;85.91
38912;BME280;28444;48.056;14.408;2022-07-03T04:41:06;97964.53;;;16.45;85.85
38912;BME280;28444;48.056;14.408;2022-07-03T04:43:33;97968.16;;;16.47;85.17
38912;BME280;28444;48.056;14.408;2022-07-03T04:46:00;97963.28;;;16.57;85.02
38912;BME280;28444;48.056;14.408;2022-07-03T04:48:28;97967.03;;;16.62;84.52
38912;BME280;28444;48.056;14.408;2022-07-03T04:50:55;97972.53;;;16.62;85.09
38912;BME280;28444;48.056;14.408;2022-07-03T04:53:22;97967.38;;;16.56;84.85
38912;BME280;28444;48.056;14.408;2022-07-03T04:55:49;97972.75;;;16.54;85.19
38912;BME280;28444;48.056;14.408;2022-07-03T04:58:16;97980.06;;;16.50;84.88
38912;BME280;28444;48.056;14.408;2022-07-03T05:00:44;97984.50;;;16.55;84.63
38912;BME280;28444;48.056;14.408;2022-07-03T05:03:12;97978.66;;;16.60;84.69
38912;BME280;28444;48.056;14.408;2022-07-03T05:05:38;97982.88;;;16.61;85.44
38912;BME280;28444;48.056;14.408;2022-07-03T05:08:05;97985.06;;;16.63;85.08
38912;BME280;28444;48.056;14.408;2022-07-03T05:10:32;97985.56;;;16.71;84.83
38912;BME280;28444;48.056;14.408;2022-07-03T05:12:59;97984.94;;;16.73;85.06
38912;BME280;28444;48.056;14.408;2022-07-03T05:15:25;97986.09;;;16.79;84.81
38912;BME280;28444;48.056;14.408;2022-07-03T05:17:52;97983.00;;;16.85;84.48
38912;BME280;28444;48.056;14.408;2022-07-03T05:20:19;97987.44;;;16.90;84.38
38912;BME280;28444;48.056;14.408;2022-07-03T05:22:52;97989.34;;;16.88;84.81
38912;BME280;28444;48.056;14.408;2022-07-03T05:25:19;97988.88;;;16.91;84.59
38912;BME280;28444;48.056;14.408;2022-07-03T05:27:46;97992.41;;;17.03;84.23
38912;BME280;28444;48.056;14.408;2022-07-03T05:30:13;97995.53;;;17.09;84.74
38912;BME280;28444;48.056;14.408;2022-07-03T05:32:40;98004.06;;;17.14;84.58
38912;BME280;28444;48.056;14.408;2022-07-03T05:35:07;98002.03;;;17.14;84.67
38912;BME280;28444;48.056;14.408;2022-07-03T05:37:34;97999.16;;;17.24;84.14
38912;BME280;28444;48.056;14.408;2022-07-03T05:40:01;98001.81;;;17.22;84.31
38912;BME280;28444;48.056;14.408;2022-07-03T05:42:28;98006.88;;;17.25;84.22
38912;BME280;28444;48.056;14.408;2022-07-03T05:44:55;98003.16;;;17.32;83.86
38912;BME280;28444;48.056;14.408;2022-07-03T05:47:21;98009.03;;;17.39;83.80
38912;BME280;28444;48.056;14.408;2022-07-03T05:49:48;98000.03;;;17.50;83.99
38912;BME280;28444;48.056;14.408;2022-07-03T05:52:15;97997.78;;;17.58;83.40
38912;BME280;28444;48.056;14.408;2022-07-03T05:54:43;97999.44;;;17.63;83.61
38912;BME280;28444;48.056;14.408;2022-07-03T05:57:09;97999.22;;;17.71;83.52
38912;BME280;28444;48.056;14.408;2022-07-03T05:59:36;98010.06;;;17.78;83.41
38912;BME280;28444;48.056;14.408;2022-07-03T06:02:03;98011.50;;;17.91;83.01
38912;BME280;28444;48.056;14.408;2022-07-03T06:04:30;98003.31;;;17.93;81.38
38912;BME280;28444;48.056;14.408;2022-07-03T06:06:57;98003.81;;;18.01;81.59
38912;BME280;28444;48.056;14.408;2022-07-03T06:09:23;98007.38;;;18.04;79.79
38912;BME280;28444;48.056;14.408;2022-07-03T06:11:50;98007.75;;;18.10;79.78
38912;BME280;28444;48.056;14.408;2022-07-03T06:14:17;97999.41;;;18.22;79.80
38912;BME280;28444;48.056;14.408;2022-07-03T06:16:44;98002.50;;;18.40;79.77
38912;BME280;28444;48.056;14.408;2022-07-03T06:19:11;98007.19;;;18.49;77.63
38912;BME280;28444;48.056;14.408;2022-07-03T06:21:38;98000.94;;;18.48;77.10
38912;BME280;28444;48.056;14.408;2022-07-03T06:24:05;97998.16;;;18.48;77.37
38912;BME280;28444;48.056;14.408;2022-07-03T06:26:32;98009.19;;;18.60;77.18
38912;BME280;28444;48.056;14.408;2022-07-03T06:28:59;98001.59;;;18.61;77.17
38912;BME280;28444;48.056;14.408;2022-07-03T06:31:26;97999.28;;;18.69;76.92
38912;BME280;28444;48.056;14.408;2022-07-03T06:33:52;98000.88;;;18.72;76.13
38912;BME280;28444;48.056;14.408;2022-07-03T06:36:19;97998.22;;;18.74;75.40
38912;BME280;28444;48.056;14.408;2022-07-03T06:38:46;97991.69;;;18.81;75.21
38912;BME280;28444;48.056;14.408;2022-07-03T06:41:13;97999.59;;;18.87;74.52
38912;BME280;28444;48.056;14.408;2022-07-03T06:43:39;97995.25;;;18.84;73.95
38912;BME280;28444;48.056;14.408;2022-07-03T06:46:06;97994.06;;;18.87;73.75
38912;BME280;28444;48.056;14.408;2022-07-03T06:48:33;98006.91;;;18.94;75.01
38912;BME280;28444;48.056;14.408;2022-07-03T06:51:00;97995.38;;;19.11;75.73
38912;BME280;28444;48.056;14.408;2022-07-03T06:53:26;97991.09;;;19.22;74.55
38912;BME280;28444;48.056;14.408;2022-07-03T06:55:53;97994.88;;;19.15;75.03
38912;BME280;28444;48.056;14.408;2022-07-03T06:58:20;97990.69;;;19.28;75.72
38912;BME280;28444;48.056;14.408;2022-07-03T07:00:47;97988.97;;;19.34;74.92
38912;BME280;28444;48.056;14.408;2022-07-03T07:03:13;97987.34;;;19.43;74.77
38912;BME280;28444;48.056;14.408;2022-07-03T07:05:40;97988.97;;;19.48;73.93
38912;BME280;28444;48.056;14.408;2022-07-03T07:08:07;97990.91;;;19.45;73.31
38912;BME280;28444;48.056;14.408;2022-07-03T07:10:34;97981.56;;;19.39;73.84
38912;BME280;28444;48.056;14.408;2022-07-03T07:13:00;97979.38;;;19.63;74.03
38912;BME280;28444;48.056;14.408;2022-07-03T07:15:27;97981.13;;;19.70;74.33
38912;BME280;28444;48.056;14.408;2022-07-03T07:17:54;97984.09;;;19.88;74.13
38912;BME280;28444;48.056;14.408;2022-07-03T07:20:20;97986.75;;;20.13;72.85
38912;BME280;28444;48.056;14.408;2022-07-03T07:22:47;97984.25;;;20.33;71.96
38912;BME280;28444;48.056;14.408;2022-07-03T07:25:14;97986.34;;;20.62;72.91
38912;BME280;28444;48.056;14.408;2022-07-03T07:27:41;97976.22;;;20.99;70.08
38912;BME280;28444;48.056;14.408;2022-07-03T07:30:08;97981.44;;;21.36;68.65
38912;BME280;28444;48.056;14.408;2022-07-03T07:32:35;97981.78;;;21.44;67.57
38912;BME280;28444;48.056;14.408;2022-07-03T07:35:02;97973.03;;;21.68;67.71
38912;BME280;28444;48.056;14.408;2022-07-03T07:37:29;97980.53;;;21.97;67.09
38912;BME280;28444;48.056;14.408;2022-07-03T07:39:55;97986.81;;;22.13;66.41
38912;BME280;28444;48.056;14.408;2022-07-03T07:42:22;97987.69;;;22.18;65.73
38912;BME280;28444;48.056;14.408;2022-07-03T07:44:50;97981.13;;;22.27;66.93
38912;BME280;28444;48.056;14.408;2022-07-03T07:47:17;97986.19;;;22.15;65.95
38912;BME280;28444;48.056;14.408;2022-07-03T07:49:44;97977.13;;;22.14;66.27
38912;BME280;28444;48.056;14.408;2022-07-03T07:52:11;97983.28;;;22.28;67.71
38912;BME280;28444;48.056;14.408;2022-07-03T07:54:37;97989.72;;;22.15;66.60
38912;BME280;28444;48.056;14.408;2022-07-03T07:57:04;97988.88;;;22.13;66.81
38912;BME280;28444;48.056;14.408;2022-07-03T07:59:31;97987.34;;;22.09;67.46
38912;BME280;28444;48.056;14.408;2022-07-03T08:01:58;97984.94;;;22.02;67.44
38912;BME280;28444;48.056;14.408;2022-07-03T08:04:43;97982.22;;;22.20;68.39
38912;BME280;28444;48.056;14.408;2022-07-03T08:07:28;97981.34;;;22.33;67.72
38912;BME280;28444;48.056;14.408;2022-07-03T08:09:55;97987.84;;;22.38;68.33
38912;BME280;28444;48.056;14.408;2022-07-03T08:12:22;97982.41;;;22.42;70.57
38912;BME280;28444;48.056;14.408;2022-07-03T08:14:49;97980.03;;;22.34;68.45
38912;BME280;28444;48.056;14.408;2022-07-03T08:17:15;97987.03;;;22.35;68.11
38912;BME280;28444;48.056;14.408;2022-07-03T08:19:42;97982.59;;;22.46;67.01
38912;BME280;28444;48.056;14.408;2022-07-03T08:22:10;97983.69;;;22.39;67.13
38912;BME280;28444;48.056;14.408;2022-07-03T08:24:36;97988.22;;;22.30;67.93
38912;BME280;28444;48.056;14.408;2022-07-03T08:27:10;97983.53;;;22.34;68.16
38912;BME280;28444;48.056;14.408;2022-07-03T08:29:36;97980.13;;;22.54;69.35
38912;BME280;28444;48.056;14.408;2022-07-03T08:32:04;97990.31;;;22.65;68.12
38912;BME280;28444;48.056;14.408;2022-07-03T08:34:31;97991.41;;;22.58;68.13
38912;BME280;28444;48.056;14.408;2022-07-03T08:36:57;97984.34;;;22.55;68.70
38912;BME280;28444;48.056;14.408;2022-07-03T08:39:24;97991.91;;;22.52;69.09
38912;BME280;28444;48.056;14.408;2022-07-03T08:41:51;97993.75;;;22.64;68.68
38912;BME280;28444;48.056;14.408;2022-07-03T08:44:20;97990.09;;;22.59;68.52
38912;BME280;28444;48.056;14.408;2022-07-03T08:46:49;97996.22;;;22.55;68.53
38912;BME280;28444;48.056;14.408;2022-07-03T08:49:18;97991.59;;;22.44;69.29
38912;BME280;28444;48.056;14.408;2022-07-03T08:51:46;97998.97;;;22.38;69.54
38912;BME280;28444;48.056;14.408;2022-07-03T08:54:13;97990.84;;;22.44;69.13
38912;BME280;28444;48.056;14.408;2022-07-03T08:56:40;97985.75;;;22.38;68.13
38912;BME280;28444;48.056;14.408;2022-07-03T08:59:07;97996.66;;;22.32;68.66
38912;BME280;28444;48.056;14.408;2022-07-03T09:01:35;97989.41;;;22.43;69.33
38912;BME280;28444;48.056;14.408;2022-07-03T09:04:11;97989.34;;;22.58;69.51
38912;BME280;28444;48.056;14.408;2022-07-03T09:06:41;97983.16;;;22.60;67.82
38912;BME280;28444;48.056;14.408;2022-07-03T09:09:08;97991.66;;;22.46;67.44
38912;BME280;28444;48.056;14.408;2022-07-03T09:11:37;97987.19;;;22.39;67.62
38912;BME280;28444;48.056;14.408;2022-07-03T09:14:04;97982.59;;;22.46;69.96
38912;BME280;28444;48.056;14.408;2022-07-03T09:16:36;97985.53;;;22.68;69.11
38912;BME280;28444;48.056;14.408;2022-07-03T09:19:03;97992.63;;;22.89;67.61
38912;BME280;28444;48.056;14.408;2022-07-03T09:21:35;97993.66;;;22.97;68.12
38912;BME280;28444;48.056;14.408;2022-07-03T09:24:04;97987.09;;;22.91;67.89
38912;BME280;28444;48.056;14.408;2022-07-03T09:26:32;97991.69;;;23.00;67.31
38912;BME280;28444;48.056;14.408;2022-07-03T09:28:59;97990.25;;;22.99;66.70
38912;BME280;28444;48.056;14.408;2022-07-03T09:31:28;97990.59;;;22.91;67.73
38912;BME280;28444;48.056;14.408;2022-07-03T09:34:06;97976.06;;;23.11;68.97
38912;BME280;28444;48.056;14.408;2022-07-03T09:36:43;97975.94;;;23.26;67.95
38912;BME280;28444;48.056;14.408;2022-07-03T09:39:17;97982.94;;;23.27;68.19
38912;BME280;28444;48.056;14.408;2022-07-03T09:42:08;97975.81;;;23.42;67.05
38912;BME280;28444;48.056;14.408;2022-07-03T09:44:41;97976.47;;;23.61;67.54
38912;BME280;28444;48.056;14.408;2022-07-03T09:47:21;97976.41;;;23.59;67.07
38912;BME280;28444;48.056;14.408;2022-07-03T09:49:51;97984.84;;;23.61;66.37
38912;BME280;28444;48.056;14.408;2022-07-03T09:55:15;97977.09;;;23.59;65.68
38912;BME280;28444;48.056;14.408;2022-07-03T10:00:36;97974.44;;;23.63;66.60
38912;BME280;28444;48.056;14.408;2022-07-03T10:03:08;97978.38;;;23.56;66.64
38912;BME280;28444;48.056;14.408;2022-07-03T10:05:42;97981.25;;;23.58;66.10
38912;BME280;28444;48.056;14.408;2022-07-03T10:08:14;97978.59;;;23.62;66.13
38912;BME280;28444;48.056;14.408;2022-07-03T10:10:44;97978.00;;;23.84;67.71
38912;BME280;28444;48.056;14.408;2022-07-03T10:13:12;97962.56;;;24.02;66.65
38912;BME280;28444;48.056;14.408;2022-07-03T10:15:40;97963.75;;;24.17;66.49
38912;BME280;28444;48.056;14.408;2022-07-03T10:18:09;97969.47;;;24.21;67.92
38912;BME280;28444;48.056;14.408;2022-07-03T10:20:45;97961.03;;;24.19;65.12
38912;BME280;28444;48.056;14.408;2022-07-03T10:23:12;97956.16;;;24.20;66.51
38912;BME280;28444;48.056;14.408;2022-07-03T10:25:42;97960.63;;;24.29;63.93
38912;BME280;28444;48.056;14.408;2022-07-03T10:28:13;97952.72;;;24.21;66.92
38912;BME280;28444;48.056;14.408;2022-07-03T10:30:44;97957.22;;;24.31;65.79
38912;BME280;28444;48.056;14.408;2022-07-03T10:33:12;97955.50;;;24.21;66.39
38912;BME280;28444;48.056;14.408;2022-07-03T10:35:44;97953.25;;;24.16;68.37
38912;BME280;28444;48.056;14.408;2022-07-03T10:38:41;97946.09;;;24.33;65.65
38912;BME280;28444;48.056;14.408;2022-07-03T10:41:19;97944.16;;;24.37;65.36
38912;BME280;28444;48.056;14.408;2022-07-03T10:44:06;97942.06;;;24.38;65.71
38912;BME280;28444;48.056;14.408;2022-07-03T10:46:51;97942.28;;;24.66;64.52
38912;BME280;28444;48.056;14.408;2022-07-03T10:49:25;97931.97;;;24.72;65.67
38912;BME280;28444;48.056;14.408;2022-07-03T10:51:57;97931.66;;;24.84;64.27
38912;BME280;28444;48.056;14.408;2022-07-03T10:54:34;97939.63;;;24.94;65.04
38912;BME280;28444;48.056;14.408;2022-07-03T10:57:07;97932.66;;;24.95;62.52
38912;BME280;28444;48.056;14.408;2022-07-03T11:02:48;97927.41;;;25.07;64.21
38912;BME280;28444;48.056;14.408;2022-07-03T11:05:23;97926.59;;;25.27;63.52
38912;BME280;28444;48.056;14.408;2022-07-03T11:08:10;97920.34;;;25.28;62.57
38912;BME280;28444;48.056;14.408;2022-07-03T11:10:39;97918.25;;;25.29;64.17
38912;BME280;28444;48.056;14.408;2022-07-03T11:13:12;97920.38;;;25.30;65.00
38912;BME280;28444;48.056;14.408;2022-07-03T11:15:53;97916.63;;;25.45;64.03
38912;BME280;28444;48.056;14.408;2022-07-03T11:18:28;97919.19;;;25.37;63.84
38912;BME280;28444;48.056;14.408;2022-07-03T11:21:32;97912.00;;;25.30;63.27
38912;BME280;28444;48.056;14.408;2022-07-03T11:24:14;97911.34;;;25.32;62.97
38912;BME280;28444;48.056;14.408;2022-07-03T11:26:44;97902.47;;;25.39;63.09
38912;BME280;28444;48.056;14.408;2022-07-03T11:29:25;97909.44;;;25.38;62.32
38912;BME280;28444;48.056;14.408;2022-07-03T11:31:52;97907.28;;;25.37;62.75
38912;BME280;28444;48.056;14.408;2022-07-03T11:34:19;97902.84;;;25.28;63.25
38912;BME280;28444;48.056;14.408;2022-07-03T11:36:46;97897.97;;;25.28;64.23
38912;BME280;28444;48.056;14.408;2022-07-03T11:39:13;97900.06;;;25.28;64.19
38912;BME280;28444;48.056;14.408;2022-07-03T11:41:44;97891.91;;;25.38;64.08
38912;BME280;28444;48.056;14.408;2022-07-03T11:44:19;97890.00;;;25.44;64.81
38912;BME280;28444;48.056;14.408;2022-07-03T11:46:48;97883.97;;;25.80;66.45
38912;BME280;28444;48.056;14.408;2022-07-03T11:49:21;97884.72;;;25.83;62.93
38912;BME280;28444;48.056;14.408;2022-07-03T11:51:54;97882.28;;;25.97;61.56
38912;BME280;28444;48.056;14.408;2022-07-03T11:54:21;97881.00;;;26.02;59.40
38912;BME280;28444;48.056;14.408;2022-07-03T11:56:48;97879.53;;;25.99;61.03
38912;BME280;28444;48.056;14.408;2022-07-03T11:59:15;97871.97;;;26.06;61.69
38912;BME280;28444;48.056;14.408;2022-07-03T12:01:49;97869.25;;;26.08;62.07
38912;BME280;28444;48.056;14.408;2022-07-03T12:04:20;97869.28;;;26.10;61.98
38912;BME280;28444;48.056;14.408;2022-07-03T12:06:56;97873.63;;;26.17;61.23
38912;BME280;28444;48.056;14.408;2022-07-03T12:09:32;97861.97;;;26.27;58.81
38912;BME280;28444;48.056;14.408;2022-07-03T12:12:08;97862.81;;;26.33;59.52
38912;BME280;28444;48.056;14.408;2022-07-03T12:17:14;97862.28;;;26.41;57.57
38912;BME280;28444;48.056;14.408;2022-07-03T12:20:00;97857.97;;;26.36;59.21
38912;BME280;28444;48.056;14.408;2022-07-03T12:22:32;97853.97;;;26.45;60.74
38912;BME280;28444;48.056;14.408;2022-07-03T12:25:12;97847.91;;;26.55;60.32
38912;BME280;28444;48.056;14.408;2022-07-03T12:27:41;97853.31;;;26.47;57.81
38912;BME280;28444;48.056;14.408;2022-07-03T12:30:10;97848.94;;;26.39;56.44
38912;BME280;28444;48.056;14.408;2022-07-03T12:32:38;97851.00;;;26.37;59.50
38912;BME280;28444;48.056;14.408;2022-07-03T12:35:06;97851.41;;;26.55;59.33
38912;BME280;28444;48.056;14.408;2022-07-03T12:37:42;97842.38;;;26.59;59.84
38912;BME280;28444;48.056;14.408;2022-07-03T12:40:12;97848.38;;;26.77;57.47
38912;BME280;28444;48.056;14.408;2022-07-03T12:42:49;97837.09;;;26.75;57.31
38912;BME280;28444;48.056;14.408;2022-07-03T12:45:18;97828.66;;;26.73;59.09
38912;BME280;28444;48.056;14.408;2022-07-03T12:47:57;97839.22;;;26.75;57.04
38912;BME280;28444;48.056;14.408;2022-07-03T12:50:24;97826.31;;;26.96;58.51
38912;BME280;28444;48.056;14.408;2022-07-03T12:52:55;97825.53;;;26.91;59.57
38912;BME280;28444;48.056;14.408;2022-07-03T12:55:24;97824.97;;;26.99;57.91
38912;BME280;28444;48.056;14.408;2022-07-03T12:58:16;97824.91;;;26.97;55.50
38912;BME280;28444;48.056;14.408;2022-07-03T13:01:06;97816.03;;;27.08;57.19
38912;BME280;28444;48.056;14.408;2022-07-03T13:03:49;97810.41;;;27.08;56.17
38912;BME280;28444;48.056;14.408;2022-07-03T13:06:19;97810.25;;;26.98;55.32
38912;BME280;28444;48.056;14.408;2022-07-03T13:08:57;97804.81;;;27.08;56.76
38912;BME280;28444;48.056;14.408;2022-07-03T13:11:33;97806.59;;;27.28;58.81
38912;BME280;28444;48.056;14.408;2022-07-03T13:14:14;97803.19;;;27.33;57.68
38912;BME280;28444;48.056;14.408;2022-07-03T13:16:44;97793.47;;;27.41;55.30
38912;BME280;28444;48.056;14.408;2022-07-03T13:19:14;97799.72;;;27.35;58.02
38912;BME280;28444;48.056;14.408;2022-07-03T13:21:41;97801.06;;;27.34;57.40
38912;BME280;28444;48.056;14.408;2022-07-03T13:24:11;97792.75;;;27.38;54.40
38912;BME280;28444;48.056;14.408;2022-07-03T13:26:38;97796.28;;;27.41;54.57
38912;BME280;28444;48.056;14.408;2022-07-03T13:29:05;97799.91;;;27.45;54.54
38912;BME280;28444;48.056;14.408;2022-07-03T13:31:32;97795.75;;;27.50;54.20
38912;BME280;28444;48.056;14.408;2022-07-03T13:33:59;97800.66;;;27.50;54.94
38912;BME280;28444;48.056;14.408;2022-07-03T13:36:27;97802.09;;;27.51;54.51
38912;BME280;28444;48.056;14.408;2022-07-03T13:38:55;97787.28;;;27.46;53.54